sensor_id;sensor_type;location;lat;lon;timestamp;temperature;humidity
57030;DHT22;42920;45.306;20.448;2023-07-30T00:01:41;614.70;2432.00
57030;DHT22;42920;45.306;20.448;2023-07-30T00:04:06;614.70;2432.00
57030;DHT22;42920;45.306;20.448;2023-07-30T00:06:32;614.70;2432.00
57030;DHT22;42920;45.306;20.448;2023-07-30T00:08:58;614.60;2432.00
57030;DHT22;42920;45.306;20.448;2023-07-30T00:11:23;614.80;2432.00
57030;DHT22;42920;45.306;20.448;2023-07-30T00:13:49;614.90;2432.00
57030;DHT22;42920;45.306;20.448;2023-07-30T00:16:15;615.00;2432.00
57030;DHT22;42920;45.306;20.448;2023-07-30T00:18:40;615.10;2432.00
57030;DHT22;42920;45.306;20.448;2023-07-30T00:21:06;615.00;2432.00
57030;DHT22;42920;45.306;20.448;2023-07-30T00:23:32;614.80;2432.00
57030;DHT22;42920;45.306;20.448;2023-07-30T00:25:57;614.80;2432.00
57030;DHT22;42920;45.306;20.448;2023-07-30T00:28:23;615.00;2432.00
57030;DHT22;42920;45.306;20.448;2023-07-30T00:30:48;615.10;2432.00
57030;DHT22;42920;45.306;20.448;2023-07-30T00:33:14;615.00;2432.00
57030;DHT22;42920;45.306;20.448;2023-07-30T00:35:40;615.10;2432.00
57030;DHT22;42920;45.306;20.448;2023-07-30T00:38:05;615.10;2432.00
57030;DHT22;42920;45.306;20.448;2023-07-30T00:40:31;615.10;2432.00
57030;DHT22;42920;45.306;20.448;2023-07-30T00:42:57;615.20;2432.00
57030;DHT22;42920;45.306;20.448;2023-07-30T00:45:22;615.00;2432.00
57030;DHT22;42920;45.306;20.448;2023-07-30T00:47:48;615.00;2432.00
57030;DHT22;42920;45.306;20.448;2023-07-30T00:50:15;615.00;2432.00
57030;DHT22;42920;45.306;20.448;2023-07-30T00:52:42;615.10;2432.00
57030;DHT22;42920;45.306;20.448;2023-07-30T00:55:09;615.10;2432.00
57030;DHT22;42920;45.306;20.448;2023-07-30T00:57:36;615.10;2432.00
57030;DHT22;42920;45.306;20.448;2023-07-30T01:00:03;615.10;2432.00
57030;DHT22;42920;45.306;20.448;2023-07-30T01:02:31;615.00;2432.00
57030;DHT22;42920;45.306;20.448;2023-07-30T01:04:58;614.90;2432.00
57030;DHT22;42920;45.306;20.448;2023-07-30T01:07:25;614.80;2432.00
57030;DHT22;42920;45.306;20.448;2023-07-30T01:09:52;614.70;2432.00
57030;DHT22;42920;45.306;20.448;2023-07-30T01:14:45;614.40;2432.00
57030;DHT22;42920;45.306;20.448;2023-07-30T01:17:12;589.70;2432.00
57030;DHT22;42920;45.306;20.448;2023-07-30T01:19:38;614.40;2432.00
57030;DHT22;42920;45.306;20.448;2023-07-30T01:22:03;589.70;2432.00
57030;DHT22;42920;45.306;20.448;2023-07-30T01:24:29;589.60;2432.00
57030;DHT22;42920;45.306;20.448;2023-07-30T01:26:59;589.50;2432.00
57030;DHT22;42920;45.306;20.448;2023-07-30T01:29:46;589.50;2432.00
57030;DHT22;42920;45.306;20.448;2023-07-30T01:32:17;589.40;2432.00
57030;DHT22;42920;45.306;20.448;2023-07-30T01:34:46;589.50;2432.00
57030;DHT22;42920;45.306;20.448;2023-07-30T01:37:13;589.50;2432.00
57030;DHT22;42920;45.306;20.448;2023-07-30T01:39:40;589.50;2432.00
57030;DHT22;42920;45.306;20.448;2023-07-30T01:42:07;589.40;2432.00
57030;DHT22;42920;45.306;20.448;2023-07-30T01:44:33;589.50;2432.00
57030;DHT22;42920;45.306;20.448;2023-07-30T01:46:59;589.50;2432.00
57030;DHT22;42920;45.306;20.448;2023-07-30T01:49:24;589.60;2432.00
57030;DHT22;42920;45.306;20.448;2023-07-30T01:51:50;589.70;2432.00
57030;DHT22;42920;45.306;20.448;2023-07-30T01:54:16;614.40;2432.00
57030;DHT22;42920;45.306;20.448;2023-07-30T01:56:41;614.50;2432.00
57030;DHT22;42920;45.306;20.448;2023-07-30T01:59:07;614.40;2432.00
57030;DHT22;42920;45.306;20.448;2023-07-30T02:01:32;614.40;2432.00
57030;DHT22;42920;45.306;20.448;2023-07-30T02:03:58;614.40;2432.00
57030;DHT22;42920;45.306;20.448;2023-07-30T02:06:24;589.60;2432.00
57030;DHT22;42920;45.306;20.448;2023-07-30T02:08:49;589.60;2432.00
57030;DHT22;42920;45.306;20.448;2023-07-30T02:11:15;589.50;2432.00
57030;DHT22;42920;45.306;20.448;2023-07-30T02:13:41;589.50;2432.00
57030;DHT22;42920;45.306;20.448;2023-07-30T02:16:08;589.50;2432.00
57030;DHT22;42920;45.306;20.448;2023-07-30T02:18:33;589.30;2432.00
57030;DHT22;42920;45.306;20.448;2023-07-30T02:20:59;589.20;2432.00
57030;DHT22;42920;45.306;20.448;2023-07-30T02:23:25;589.20;2432.00
57030;DHT22;42920;45.306;20.448;2023-07-30T02:25:51;589.20;2432.00
57030;DHT22;42920;45.306;20.448;2023-07-30T02:28:16;589.10;2432.00
57030;DHT22;42920;45.306;20.448;2023-07-30T02:30:42;589.00;2432.00
57030;DHT22;42920;45.306;20.448;2023-07-30T02:33:07;589.00;2432.00
57030;DHT22;42920;45.306;20.448;2023-07-30T02:35:33;589.10;2432.00
57030;DHT22;42920;45.306;20.448;2023-07-30T02:37:59;589.10;2432.00
57030;DHT22;42920;45.306;20.448;2023-07-30T02:40:24;589.10;2432.00
57030;DHT22;42920;45.306;20.448;2023-07-30T02:42:50;589.10;2432.00
57030;DHT22;42920;45.306;20.448;2023-07-30T02:45:16;588.90;2432.00
57030;DHT22;42920;45.306;20.448;2023-07-30T02:47:43;588.80;2432.00
57030;DHT22;42920;45.306;20.448;2023-07-30T02:50:09;564.10;2432.00
57030;DHT22;42920;45.306;20.448;2023-07-30T02:52:35;564.10;2432.00
57030;DHT22;42920;45.306;20.448;2023-07-30T02:55:00;564.00;2432.00
57030;DHT22;42920;45.306;20.448;2023-07-30T02:57:26;564.00;2432.00
57030;DHT22;42920;45.306;20.448;2023-07-30T02:59:52;564.10;2432.00
57030;DHT22;42920;45.306;20.448;2023-07-30T03:02:17;564.10;2432.00
57030;DHT22;42920;45.306;20.448;2023-07-30T03:04:43;588.80;2432.00
57030;DHT22;42920;45.306;20.448;2023-07-30T03:07:09;564.10;2432.00
57030;DHT22;42920;45.306;20.448;2023-07-30T03:09:35;564.00;2432.00
57030;DHT22;42920;45.306;20.448;2023-07-30T03:12:01;564.00;2432.00
57030;DHT22;42920;45.306;20.448;2023-07-30T03:14:27;563.90;2432.00
57030;DHT22;42920;45.306;20.448;2023-07-30T03:16:52;563.80;2432.00
57030;DHT22;42920;45.306;20.448;2023-07-30T03:19:18;563.80;2432.00
57030;DHT22;42920;45.306;20.448;2023-07-30T03:21:44;563.90;2432.00
57030;DHT22;42920;45.306;20.448;2023-07-30T03:24:09;563.90;2432.00
57030;DHT22;42920;45.306;20.448;2023-07-30T03:26:35;563.60;2432.00
57030;DHT22;42920;45.306;20.448;2023-07-30T03:29:00;563.50;2432.00
57030;DHT22;42920;45.306;20.448;2023-07-30T03:31:26;563.40;2432.00
57030;DHT22;42920;45.306;20.448;2023-07-30T03:33:54;563.30;2432.00
57030;DHT22;42920;45.306;20.448;2023-07-30T03:36:19;563.30;2432.00
57030;DHT22;42920;45.306;20.448;2023-07-30T03:38:45;563.20;2432.00
57030;DHT22;42920;45.306;20.448;2023-07-30T03:41:11;563.30;2432.00
57030;DHT22;42920;45.306;20.448;2023-07-30T03:43:37;563.20;2432.00
57030;DHT22;42920;45.306;20.448;2023-07-30T03:46:03;563.20;2432.00
57030;DHT22;42920;45.306;20.448;2023-07-30T03:48:29;563.20;2432.00
57030;DHT22;42920;45.306;20.448;2023-07-30T03:50:55;563.50;2432.00
57030;DHT22;42920;45.306;20.448;2023-07-30T03:53:21;563.50;2432.00
57030;DHT22;42920;45.306;20.448;2023-07-30T03:55:47;563.40;2432.00
57030;DHT22;42920;45.306;20.448;2023-07-30T03:58:13;563.30;2432.00
57030;DHT22;42920;45.306;20.448;2023-07-30T04:00:39;563.30;2432.00
57030;DHT22;42920;45.306;20.448;2023-07-30T04:03:05;563.30;2432.00
57030;DHT22;42920;45.306;20.448;2023-07-30T04:05:31;563.60;2432.00
57030;DHT22;42920;45.306;20.448;2023-07-30T04:07:57;563.60;2432.00
57030;DHT22;42920;45.306;20.448;2023-07-30T04:10:23;563.60;2432.00
57030;DHT22;42920;45.306;20.448;2023-07-30T04:12:48;563.80;2432.00
57030;DHT22;42920;45.306;20.448;2023-07-30T04:15:15;563.90;2432.00
57030;DHT22;42920;45.306;20.448;2023-07-30T04:17:41;564.10;2432.00
57030;DHT22;42920;45.306;20.448;2023-07-30T04:20:08;564.10;2432.00
57030;DHT22;42920;45.306;20.448;2023-07-30T04:22:35;564.10;2432.00
57030;DHT22;42920;45.306;20.448;2023-07-30T04:25:01;588.80;2432.00
57030;DHT22;42920;45.306;20.448;2023-07-30T04:27:27;588.90;2432.00
57030;DHT22;42920;45.306;20.448;2023-07-30T04:29:53;588.90;2432.00
57030;DHT22;42920;45.306;20.448;2023-07-30T04:32:18;589.00;2432.00
57030;DHT22;42920;45.306;20.448;2023-07-30T04:34:44;589.10;2432.00
57030;DHT22;42920;45.306;20.448;2023-07-30T04:37:10;589.20;2432.00
57030;DHT22;42920;45.306;20.448;2023-07-30T04:39:36;589.30;2432.00
57030;DHT22;42920;45.306;20.448;2023-07-30T04:42:02;589.50;2432.00
57030;DHT22;42920;45.306;20.448;2023-07-30T04:44:28;589.70;2432.00
57030;DHT22;42920;45.306;20.448;2023-07-30T04:46:54;589.70;2432.00
57030;DHT22;42920;45.306;20.448;2023-07-30T04:49:19;614.50;2432.00
57030;DHT22;42920;45.306;20.448;2023-07-30T04:51:45;614.70;2432.00
57030;DHT22;42920;45.306;20.448;2023-07-30T04:54:11;614.70;2432.00
57030;DHT22;42920;45.306;20.448;2023-07-30T04:56:37;614.80;2432.00
57030;DHT22;42920;45.306;20.448;2023-07-30T04:59:03;614.80;2432.00
57030;DHT22;42920;45.306;20.448;2023-07-30T05:01:29;614.90;2432.00
57030;DHT22;42920;45.306;20.448;2023-07-30T05:03:55;614.90;2432.00
57030;DHT22;42920;45.306;20.448;2023-07-30T05:06:20;614.90;2432.00
57030;DHT22;42920;45.306;20.448;2023-07-30T05:08:46;614.90;2432.00
57030;DHT22;42920;45.306;20.448;2023-07-30T05:11:12;614.90;2432.00
57030;DHT22;42920;45.306;20.448;2023-07-30T05:13:37;614.80;2432.00
57030;DHT22;42920;45.306;20.448;2023-07-30T05:16:03;614.80;2432.00
57030;DHT22;42920;45.306;20.448;2023-07-30T05:18:29;614.80;2432.00
57030;DHT22;42920;45.306;20.448;2023-07-30T05:20:55;614.80;2432.00
57030;DHT22;42920;45.306;20.448;2023-07-30T05:23:21;614.90;2432.00
57030;DHT22;42920;45.306;20.448;2023-07-30T05:25:47;614.90;2432.00
57030;DHT22;42920;45.306;20.448;2023-07-30T05:28:13;614.90;2432.00
57030;DHT22;42920;45.306;20.448;2023-07-30T05:30:39;614.90;2432.00
57030;DHT22;42920;45.306;20.448;2023-07-30T05:33:05;615.00;2432.00
57030;DHT22;42920;45.306;20.448;2023-07-30T05:35:30;615.20;2432.00
57030;DHT22;42920;45.306;20.448;2023-07-30T05:37:56;615.30;2432.00
57030;DHT22;42920;45.306;20.448;2023-07-30T05:40:22;615.30;2432.00
57030;DHT22;42920;45.306;20.448;2023-07-30T05:42:47;640.00;2432.00
57030;DHT22;42920;45.306;20.448;2023-07-30T05:45:13;640.10;2432.00
57030;DHT22;42920;45.306;20.448;2023-07-30T05:47:39;640.30;2432.00
57030;DHT22;42920;45.306;20.448;2023-07-30T05:50:06;640.40;2432.00
57030;DHT22;42920;45.306;20.448;2023-07-30T05:59:50;640.90;2432.00
57030;DHT22;42920;45.306;20.448;2023-07-30T06:02:16;640.90;2432.00
57030;DHT22;42920;45.306;20.448;2023-07-30T06:04:42;665.80;2432.00
57030;DHT22;42920;45.306;20.448;2023-07-30T06:07:08;665.90;2432.00
57030;DHT22;42920;45.306;20.448;2023-07-30T06:09:33;665.90;2432.00
57030;DHT22;42920;45.306;20.448;2023-07-30T06:11:59;666.00;2432.00
57030;DHT22;42920;45.306;20.448;2023-07-30T06:14:25;666.00;2432.00
57030;DHT22;42920;45.306;20.448;2023-07-30T06:16:52;666.30;2432.00
57030;DHT22;42920;45.306;20.448;2023-07-30T06:19:18;666.40;2432.00
57030;DHT22;42920;45.306;20.448;2023-07-30T06:21:44;666.50;2432.00
57030;DHT22;42920;45.306;20.448;2023-07-30T06:24:09;691.30;2432.00
57030;DHT22;42920;45.306;20.448;2023-07-30T06:33:53;691.90;2432.00
57030;DHT22;42920;45.306;20.448;2023-07-30T06:36:19;691.80;2432.00
57030;DHT22;42920;45.306;20.448;2023-07-30T06:38:45;692.00;2432.00
57030;DHT22;42920;45.306;20.448;2023-07-30T06:41:11;691.90;2432.00
57030;DHT22;42920;45.306;20.448;2023-07-30T06:43:36;692.10;2432.00
57030;DHT22;42920;45.306;20.448;2023-07-30T06:46:02;716.80;2432.00
57030;DHT22;42920;45.306;20.448;2023-07-30T06:48:28;716.90;2432.00
57030;DHT22;42920;45.306;20.448;2023-07-30T06:50:53;717.00;2432.00
57030;DHT22;42920;45.306;20.448;2023-07-30T06:53:19;717.10;2432.00
57030;DHT22;42920;45.306;20.448;2023-07-30T06:55:45;717.20;2432.00
57030;DHT22;42920;45.306;20.448;2023-07-30T06:58:11;717.50;2432.00
57030;DHT22;42920;45.306;20.448;2023-07-30T07:00:36;717.30;2432.00
57030;DHT22;42920;45.306;20.448;2023-07-30T07:03:03;717.50;2432.00
57030;DHT22;42920;45.306;20.448;2023-07-30T07:05:29;717.60;2432.00
57030;DHT22;42920;45.306;20.448;2023-07-30T07:07:55;717.70;2432.00
57030;DHT22;42920;45.306;20.448;2023-07-30T07:10:20;742.40;2432.00
57030;DHT22;42920;45.306;20.448;2023-07-30T07:12:46;742.60;2432.00
57030;DHT22;42920;45.306;20.448;2023-07-30T07:15:12;742.60;2432.00
57030;DHT22;42920;45.306;20.448;2023-07-30T07:17:38;742.80;2432.00
57030;DHT22;42920;45.306;20.448;2023-07-30T07:20:06;743.00;2432.00
57030;DHT22;42920;45.306;20.448;2023-07-30T07:22:33;742.80;2432.00
57030;DHT22;42920;45.306;20.448;2023-07-30T07:24:59;743.00;2432.00
57030;DHT22;42920;45.306;20.448;2023-07-30T07:27:25;743.10;2432.00
57030;DHT22;42920;45.306;20.448;2023-07-30T07:29:51;768.00;2329.60
57030;DHT22;42920;45.306;20.448;2023-07-30T07:32:18;768.10;2252.80
57030;DHT22;42920;45.306;20.448;2023-07-30T07:34:47;768.10;2201.60
57030;DHT22;42920;45.306;20.448;2023-07-30T07:37:14;768.20;2227.20
57030;DHT22;42920;45.306;20.448;2023-07-30T07:39:41;768.10;2227.20
57030;DHT22;42920;45.306;20.448;2023-07-30T07:42:07;768.30;2201.60
57030;DHT22;42920;45.306;20.448;2023-07-30T07:44:33;768.50;2124.80
57030;DHT22;42920;45.306;20.448;2023-07-30T07:46:58;768.60;2073.60
57030;DHT22;42920;45.306;20.448;2023-07-30T07:49:24;768.70;2073.60
57030;DHT22;42920;45.306;20.448;2023-07-30T07:51:50;768.90;2048.00
57030;DHT22;42920;45.306;20.448;2023-07-30T07:54:15;793.60;2048.00
57030;DHT22;42920;45.306;20.448;2023-07-30T07:56:41;793.70;2048.00
57030;DHT22;42920;45.306;20.448;2023-07-30T07:59:07;794.00;1971.20
57030;DHT22;42920;45.306;20.448;2023-07-30T08:01:33;794.10;1996.80
57030;DHT22;42920;45.306;20.448;2023-07-30T08:03:58;794.20;1996.80
57030;DHT22;42920;45.306;20.448;2023-07-30T08:06:24;794.50;1894.40
57030;DHT22;42920;45.306;20.448;2023-07-30T08:08:50;794.50;1894.40
57030;DHT22;42920;45.306;20.448;2023-07-30T08:11:16;819.60;1868.80
57030;DHT22;42920;45.306;20.448;2023-07-30T08:13:41;819.40;1817.60
57030;DHT22;42920;45.306;20.448;2023-07-30T08:16:07;819.70;1817.60
57030;DHT22;42920;45.306;20.448;2023-07-30T08:18:33;820.00;1792.00
57030;DHT22;42920;45.306;20.448;2023-07-30T08:21:00;820.00;1715.20
57030;DHT22;42920;45.306;20.448;2023-07-30T08:23:26;820.10;1689.60
57030;DHT22;42920;45.306;20.448;2023-07-30T08:25:51;820.10;1715.20
57030;DHT22;42920;45.306;20.448;2023-07-30T08:28:17;844.90;1715.20
57030;DHT22;42920;45.306;20.448;2023-07-30T08:38:01;845.40;1587.20
57030;DHT22;42920;45.306;20.448;2023-07-30T08:40:27;845.40;1561.60
57030;DHT22;42920;45.306;20.448;2023-07-30T08:42:53;845.30;1561.60
57030;DHT22;42920;45.306;20.448;2023-07-30T08:45:19;845.20;1561.60
57030;DHT22;42920;45.306;20.448;2023-07-30T08:47:46;845.20;1587.20
57030;DHT22;42920;45.306;20.448;2023-07-30T08:50:13;845.00;1612.80
57030;DHT22;42920;45.306;20.448;2023-07-30T08:52:38;845.20;1587.20
57030;DHT22;42920;45.306;20.448;2023-07-30T08:55:05;845.50;1561.60
57030;DHT22;42920;45.306;20.448;2023-07-30T08:57:31;845.70;1587.20
57030;DHT22;42920;45.306;20.448;2023-07-30T09:00:04;845.60;1612.80
57030;DHT22;42920;45.306;20.448;2023-07-30T09:02:53;845.70;1561.60
57030;DHT22;42920;45.306;20.448;2023-07-30T09:05:20;870.50;1536.00
57030;DHT22;42920;45.306;20.448;2023-07-30T09:07:46;870.50;1510.40
57030;DHT22;42920;45.306;20.448;2023-07-30T09:10:13;870.70;1510.40
57030;DHT22;42920;45.306;20.448;2023-07-30T09:25:00;845.50;1510.40
57030;DHT22;42920;45.306;20.448;2023-07-30T09:27:27;845.40;1561.60
57030;DHT22;42920;45.306;20.448;2023-07-30T09:29:54;845.70;1510.40
57030;DHT22;42920;45.306;20.448;2023-07-30T09:32:24;870.50;1484.80
57030;DHT22;42920;45.306;20.448;2023-07-30T09:34:50;870.80;1484.80
57030;DHT22;42920;45.306;20.448;2023-07-30T09:37:16;871.00;1433.60
57030;DHT22;42920;45.306;20.448;2023-07-30T09:39:43;871.00;1433.60
57030;DHT22;42920;45.306;20.448;2023-07-30T09:42:09;871.00;1408.00
57030;DHT22;42920;45.306;20.448;2023-07-30T09:44:37;870.70;1408.00
57030;DHT22;42920;45.306;20.448;2023-07-30T09:47:04;870.70;1433.60
57030;DHT22;42920;45.306;20.448;2023-07-30T09:49:31;871.10;1433.60
57030;DHT22;42920;45.306;20.448;2023-07-30T09:51:57;896.20;1433.60
57030;DHT22;42920;45.306;20.448;2023-07-30T09:54:23;871.30;1433.60
57030;DHT22;42920;45.306;20.448;2023-07-30T09:56:49;871.00;1433.60
57030;DHT22;42920;45.306;20.448;2023-07-30T09:59:15;871.30;1408.00
57030;DHT22;42920;45.306;20.448;2023-07-30T10:01:48;896.10;1408.00
57030;DHT22;42920;45.306;20.448;2023-07-30T10:04:21;896.10;1433.60
57030;DHT22;42920;45.306;20.448;2023-07-30T10:09:23;871.30;1356.80
57030;DHT22;42920;45.306;20.448;2023-07-30T10:11:52;896.10;1356.80
57030;DHT22;42920;45.306;20.448;2023-07-30T10:14:22;896.00;1408.00
57030;DHT22;42920;45.306;20.448;2023-07-30T10:16:59;871.10;1382.40
57030;DHT22;42920;45.306;20.448;2023-07-30T10:19:26;871.10;1408.00
57030;DHT22;42920;45.306;20.448;2023-07-30T10:22:21;870.90;1459.20
57030;DHT22;42920;45.306;20.448;2023-07-30T10:25:05;870.90;1408.00
57030;DHT22;42920;45.306;20.448;2023-07-30T10:27:41;870.90;1408.00
57030;DHT22;42920;45.306;20.448;2023-07-30T10:30:13;870.80;1433.60
57030;DHT22;42920;45.306;20.448;2023-07-30T10:32:40;870.70;1408.00
57030;DHT22;42920;45.306;20.448;2023-07-30T10:35:07;870.90;1356.80
57030;DHT22;42920;45.306;20.448;2023-07-30T10:37:33;871.00;1408.00
57030;DHT22;42920;45.306;20.448;2023-07-30T10:39:58;896.00;1356.80
57030;DHT22;42920;45.306;20.448;2023-07-30T10:42:33;896.00;1331.20
57030;DHT22;42920;45.306;20.448;2023-07-30T10:44:59;896.30;1331.20
57030;DHT22;42920;45.306;20.448;2023-07-30T10:47:27;896.50;1305.60
57030;DHT22;42920;45.306;20.448;2023-07-30T10:49:53;896.30;1305.60
57030;DHT22;42920;45.306;20.448;2023-07-30T10:52:24;896.10;1356.80
57030;DHT22;42920;45.306;20.448;2023-07-30T10:54:59;896.30;1305.60
57030;DHT22;42920;45.306;20.448;2023-07-30T10:57:30;896.50;1280.00
57030;DHT22;42920;45.306;20.448;2023-07-30T10:59:58;896.50;1280.00
57030;DHT22;42920;45.306;20.448;2023-07-30T11:02:24;896.00;1305.60
57030;DHT22;42920;45.306;20.448;2023-07-30T11:04:50;871.10;1356.80
57030;DHT22;42920;45.306;20.448;2023-07-30T11:07:17;870.90;1382.40
57030;DHT22;42920;45.306;20.448;2023-07-30T11:09:44;871.10;1382.40
57030;DHT22;42920;45.306;20.448;2023-07-30T11:12:10;871.30;1382.40
57030;DHT22;42920;45.306;20.448;2023-07-30T11:14:36;896.10;1356.80
57030;DHT22;42920;45.306;20.448;2023-07-30T11:17:01;896.20;1356.80
57030;DHT22;42920;45.306;20.448;2023-07-30T11:19:28;896.10;1331.20
57030;DHT22;42920;45.306;20.448;2023-07-30T11:21:56;871.30;1356.80
57030;DHT22;42920;45.306;20.448;2023-07-30T11:24:32;871.30;1331.20
57030;DHT22;42920;45.306;20.448;2023-07-30T11:27:00;871.00;1356.80
57030;DHT22;42920;45.306;20.448;2023-07-30T11:29:26;896.00;1356.80
57030;DHT22;42920;45.306;20.448;2023-07-30T11:31:56;896.20;1305.60
57030;DHT22;42920;45.306;20.448;2023-07-30T11:34:22;896.30;1305.60
57030;DHT22;42920;45.306;20.448;2023-07-30T11:36:48;896.80;1280.00
57030;DHT22;42920;45.306;20.448;2023-07-30T11:39:14;896.30;1305.60
57030;DHT22;42920;45.306;20.448;2023-07-30T11:41:40;896.80;1254.40
57030;DHT22;42920;45.306;20.448;2023-07-30T11:44:07;896.90;1228.80
57030;DHT22;42920;45.306;20.448;2023-07-30T11:46:32;921.70;1280.00
57030;DHT22;42920;45.306;20.448;2023-07-30T11:49:12;896.90;1254.40
57030;DHT22;42920;45.306;20.448;2023-07-30T11:51:39;921.70;1280.00
57030;DHT22;42920;45.306;20.448;2023-07-30T11:54:05;922.00;1305.60
57030;DHT22;42920;45.306;20.448;2023-07-30T11:56:32;922.00;1280.00
57030;DHT22;42920;45.306;20.448;2023-07-30T11:59:20;921.80;1331.20
57030;DHT22;42920;45.306;20.448;2023-07-30T12:01:46;896.70;1305.60
57030;DHT22;42920;45.306;20.448;2023-07-30T12:04:12;896.50;1305.60
57030;DHT22;42920;45.306;20.448;2023-07-30T12:09:34;896.20;1305.60
57030;DHT22;42920;45.306;20.448;2023-07-30T12:12:01;896.00;1331.20
57030;DHT22;42920;45.306;20.448;2023-07-30T12:14:28;896.10;1305.60
57030;DHT22;42920;45.306;20.448;2023-07-30T12:17:01;871.30;1305.60
57030;DHT22;42920;45.306;20.448;2023-07-30T12:19:27;871.00;1356.80
57030;DHT22;42920;45.306;20.448;2023-07-30T12:21:52;870.70;1408.00
57030;DHT22;42920;45.306;20.448;2023-07-30T12:24:18;870.70;1433.60
57030;DHT22;42920;45.306;20.448;2023-07-30T12:26:44;870.40;1408.00
57030;DHT22;42920;45.306;20.448;2023-07-30T12:29:09;845.70;1459.20
57030;DHT22;42920;45.306;20.448;2023-07-30T12:31:35;845.50;1459.20
57030;DHT22;42920;45.306;20.448;2023-07-30T12:34:01;845.40;1484.80
57030;DHT22;42920;45.306;20.448;2023-07-30T12:36:26;845.20;1484.80
57030;DHT22;42920;45.306;20.448;2023-07-30T12:38:53;845.00;1510.40
57030;DHT22;42920;45.306;20.448;2023-07-30T12:41:20;844.80;1510.40
57030;DHT22;42920;45.306;20.448;2023-07-30T12:43:52;820.10;1484.80
57030;DHT22;42920;45.306;20.448;2023-07-30T12:46:18;819.90;1484.80
57030;DHT22;42920;45.306;20.448;2023-07-30T12:48:44;819.90;1510.40
57030;DHT22;42920;45.306;20.448;2023-07-30T12:51:10;819.90;1536.00
57030;DHT22;42920;45.306;20.448;2023-07-30T12:53:35;819.80;1510.40
57030;DHT22;42920;45.306;20.448;2023-07-30T12:56:01;820.00;1561.60
57030;DHT22;42920;45.306;20.448;2023-07-30T13:10:28;819.90;1510.40
57030;DHT22;42920;45.306;20.448;2023-07-30T13:12:54;845.00;1561.60
57030;DHT22;42920;45.306;20.448;2023-07-30T13:15:20;844.90;1587.20
57030;DHT22;42920;45.306;20.448;2023-07-30T13:17:45;820.10;1587.20
57030;DHT22;42920;45.306;20.448;2023-07-30T13:20:11;820.00;1587.20
57030;DHT22;42920;45.306;20.448;2023-07-30T13:22:37;819.60;1664.00
57030;DHT22;42920;45.306;20.448;2023-07-30T13:25:02;794.40;1740.80
57030;DHT22;42920;45.306;20.448;2023-07-30T13:27:28;793.60;1868.80
57030;DHT22;42920;45.306;20.448;2023-07-30T13:29:54;768.60;1894.40
57030;DHT22;42920;45.306;20.448;2023-07-30T13:32:20;768.40;1971.20
57030;DHT22;42920;45.306;20.448;2023-07-30T13:34:45;768.40;2048.00
57030;DHT22;42920;45.306;20.448;2023-07-30T13:37:11;768.10;2124.80
57030;DHT22;42920;45.306;20.448;2023-07-30T13:39:37;743.30;2201.60
57030;DHT22;42920;45.306;20.448;2023-07-30T13:42:02;743.10;2278.40
57030;DHT22;42920;45.306;20.448;2023-07-30T13:44:28;743.00;2355.20
57030;DHT22;42920;45.306;20.448;2023-07-30T13:46:54;742.80;2432.00
57030;DHT22;42920;45.306;20.448;2023-07-30T13:49:20;717.70;2432.00
57030;DHT22;42920;45.306;20.448;2023-07-30T13:51:45;717.60;2432.00
57030;DHT22;42920;45.306;20.448;2023-07-30T13:54:11;717.50;2432.00
57030;DHT22;42920;45.306;20.448;2023-07-30T13:56:37;717.50;2432.00
57030;DHT22;42920;45.306;20.448;2023-07-30T13:59:04;717.40;2432.00
57030;DHT22;42920;45.306;20.448;2023-07-30T14:01:29;717.20;2432.00
57030;DHT22;42920;45.306;20.448;2023-07-30T14:03:55;717.00;2432.00
57030;DHT22;42920;45.306;20.448;2023-07-30T14:06:21;692.10;2432.00
57030;DHT22;42920;45.306;20.448;2023-07-30T14:08:47;692.00;2432.00
57030;DHT22;42920;45.306;20.448;2023-07-30T14:11:12;691.90;2432.00
57030;DHT22;42920;45.306;20.448;2023-07-30T14:13:38;692.00;2432.00
57030;DHT22;42920;45.306;20.448;2023-07-30T14:16:03;692.00;2432.00
57030;DHT22;42920;45.306;20.448;2023-07-30T14:18:29;691.80;2432.00
57030;DHT22;42920;45.306;20.448;2023-07-30T14:20:55;691.90;2432.00
57030;DHT22;42920;45.306;20.448;2023-07-30T14:23:21;691.80;2432.00
57030;DHT22;42920;45.306;20.448;2023-07-30T14:25:46;691.90;2432.00
57030;DHT22;42920;45.306;20.448;2023-07-30T14:28:12;691.90;2432.00
57030;DHT22;42920;45.306;20.448;2023-07-30T14:30:40;716.80;2432.00
57030;DHT22;42920;45.306;20.448;2023-07-30T14:33:10;691.90;2432.00
57030;DHT22;42920;45.306;20.448;2023-07-30T14:35:36;691.90;2432.00
57030;DHT22;42920;45.306;20.448;2023-07-30T14:38:04;692.00;2432.00
57030;DHT22;42920;45.306;20.448;2023-07-30T14:40:30;691.70;2432.00
57030;DHT22;42920;45.306;20.448;2023-07-30T14:42:56;691.80;2432.00
57030;DHT22;42920;45.306;20.448;2023-07-30T14:45:22;691.80;2432.00
57030;DHT22;42920;45.306;20.448;2023-07-30T14:47:47;691.90;2432.00
57030;DHT22;42920;45.306;20.448;2023-07-30T14:50:13;691.80;2432.00
57030;DHT22;42920;45.306;20.448;2023-07-30T14:52:39;691.70;2432.00
57030;DHT22;42920;45.306;20.448;2023-07-30T14:55:05;691.70;2432.00
57030;DHT22;42920;45.306;20.448;2023-07-30T14:57:31;691.80;2432.00
57030;DHT22;42920;45.306;20.448;2023-07-30T14:59:58;691.80;2432.00
57030;DHT22;42920;45.306;20.448;2023-07-30T15:02:28;691.80;2432.00
57030;DHT22;42920;45.306;20.448;2023-07-30T15:04:54;691.70;2432.00
57030;DHT22;42920;45.306;20.448;2023-07-30T15:07:20;691.70;2432.00
57030;DHT22;42920;45.306;20.448;2023-07-30T15:09:51;691.70;2432.00
57030;DHT22;42920;45.306;20.448;2023-07-30T15:12:17;691.70;2432.00
57030;DHT22;42920;45.306;20.448;2023-07-30T15:14:43;691.50;2432.00
57030;DHT22;42920;45.306;20.448;2023-07-30T15:17:09;691.50;2432.00
57030;DHT22;42920;45.306;20.448;2023-07-30T15:19:35;691.40;2432.00
57030;DHT22;42920;45.306;20.448;2023-07-30T15:22:00;691.40;2432.00
57030;DHT22;42920;45.306;20.448;2023-07-30T15:24:26;691.40;2432.00
57030;DHT22;42920;45.306;20.448;2023-07-30T15:29:18;691.20;2432.00